Sunrise Beach, Missouri
Current Conditions -  °F | °C
As of 8:55 AM on Thursday 23 Oct 2014 (Local Time) from KAIZ Reporting Station
Overcast Overcast  
Wind Chill: 52°   Ceiling: 4300
Heat Index: 52°   Visibility: 8mi
Dew Point: 43°   Wind: 7mph
Humidity: 71%   Direction: 150°SSE
Pressure: 30.17"   Gusts: NA
Location:  38.18°N, 92.78°W
Report Text: KAIZ 231355Z AUTO 15006KT 8SM OVC043 11/06 A3017 RMK AO1
Loading
Personal Weather Stations






























Interactive Weather Map
Tropical Storm Tracking
New forecast layout! Learn more

10-Day Weather Forecast

Advertisements
Track Severe Weather on mobile